Time;durP1;ratioP1;P1;durP2;ratioP2;P2;SDS_P1;SDS_P2;PMS_P1;PMS_P2;Temp;Humidity;BMP_temperature;BMP_pressure;BME280_temperature;BME280_humidity;BME280_pressure;Samples;Min_cycle;Max_cycle;Signal;HPM_P1;HPM_P2
2023/10/23 00:01:35;;;;;;;;;;;;;;;16.67;55.98;100732.84;5080631;28;1029;-57
2023/10/23 00:04:01;;;;;;;;;;;;;;;16.64;55.43;100730.66;5075163;28;2713;-57
2023/10/23 00:06:26;;;;;;;;;;;;;;;16.52;55.31;100724.63;5075482;28;1069;-56
2023/10/23 00:08:52;;;;;;;;;;;;;;;16.51;55.08;100722.97;5085722;28;895;-57
2023/10/23 00:11:21;;;;;;;;;;;;;;;16.43;54.78;100733.41;5085826;28;1108;-57
2023/10/23 00:13:47;;;;;;;;;;;;;;;17.64;55.76;100733.75;5090721;28;1967;-57
2023/10/23 00:16:12;;;;;;;;;;;;;;;17.13;56.05;100731.19;5080515;28;1039;-57
2023/10/23 00:18:38;;;;;;;;;;;;;;;16.85;56.12;100730.66;5090606;28;1212;-57
2023/10/23 00:21:03;;;;;;;;;;;;;;;16.70;55.70;100729.56;5082284;28;1011;-56
2023/10/23 00:23:29;;;;;;;;;;;;;;;16.62;55.36;100732.03;5090668;28;1150;-57
2023/10/23 00:25:54;;;;;;;;;;;;;;;16.50;55.08;100724.91;5092530;28;1047;-57
2023/10/23 00:28:20;;;;;;;;;;;;;;;16.46;54.89;100728.47;5079109;28;1059;-57
2023/10/23 00:30:45;;;;;;;;;;;;;;;17.09;56.25;100734.47;5092311;28;1007;-57
2023/10/23 00:33:11;;;;;;;;;;;;;;;17.40;56.25;100730.84;5091859;28;2415;-57
2023/10/23 00:35:37;;;;;;;;;;;;;;;16.98;56.31;100738.34;5097071;28;1906;-57
2023/10/23 00:38:03;;;;;;;;;;;;;;;16.77;55.93;100732.88;5078740;28;1041;-57
2023/10/23 00:40:29;;;;;;;;;;;;;;;16.69;55.64;100736.16;5078755;28;1044;-57
2023/10/23 00:42:55;;;;;;;;;;;;;;;16.55;55.26;100733.16;5086911;28;1126;-57
2023/10/23 00:45:20;;;;;;;;;;;;;;;16.53;55.07;100731.78;5083737;28;1073;-57
2023/10/23 00:47:46;;;;;;;;;;;;;;;16.47;54.77;100736.44;5060684;28;1063;-57
2023/10/23 00:50:12;;;;;;;;;;;;;;;17.02;56.18;100750.44;5078133;28;1007;-57
2023/10/23 00:52:37;;;;;;;;;;;;;;;17.40;56.22;100737.19;5068124;28;1074;-56
2023/10/23 00:55:03;;;;;;;;;;;;;;;16.97;56.28;100747.72;5084656;28;1972;-57
2023/10/23 00:57:29;;;;;;;;;;;;;;;16.81;56.11;100737.81;5063238;28;2701;-57
2023/10/23 00:59:55;;;;;;;;;;;;;;;16.68;55.67;100734.50;5084141;28;1002;-57
2023/10/23 01:02:20;;;;;;;;;;;;;;;16.54;55.67;100736.19;5072634;28;1134;-57
2023/10/23 01:04:46;;;;;;;;;;;;;;;17.58;55.90;100734.91;5091396;28;2614;-52
2023/10/23 01:07:12;;;;;;;;;;;;;;;17.05;56.52;100738.88;5051593;28;1123;-56
2023/10/23 01:09:37;;;;;;;;;;;;;;;16.82;56.32;100739.47;5065048;28;887;-57
2023/10/23 01:12:03;;;;;;;;;;;;;;;16.73;55.57;100740.00;5068108;28;1191;-58
2023/10/23 01:14:29;;;;;;;;;;;;;;;16.65;55.49;100740.56;5096741;28;1968;-57
2023/10/23 01:16:54;;;;;;;;;;;;;;;16.50;55.25;100746.06;5085563;28;1114;-57
2023/10/23 01:19:20;;;;;;;;;;;;;;;16.49;55.01;100747.97;5096809;28;1066;-55
2023/10/23 01:21:46;;;;;;;;;;;;;;;17.29;56.42;100752.03;5084775;28;868;-58
2023/10/23 01:24:11;;;;;;;;;;;;;;;17.45;56.21;100745.38;5091974;28;1146;-57
2023/10/23 01:26:37;;;;;;;;;;;;;;;17.00;56.22;100740.81;5080184;28;1115;-57
2023/10/23 01:29:03;;;;;;;;;;;;;;;16.82;55.83;100751.25;5097528;28;1121;-57
2023/10/23 01:31:28;;;;;;;;;;;;;;;16.70;55.75;100748.78;5072212;28;1140;-57
2023/10/23 01:33:55;;;;;;;;;;;;;;;16.64;55.40;100749.88;5092406;28;2431;-57
2023/10/23 01:36:20;;;;;;;;;;;;;;;16.54;55.08;100750.72;5089976;28;879;-57
2023/10/23 01:38:46;;;;;;;;;;;;;;;16.45;55.05;100740.56;5072685;28;1145;-57
2023/10/23 01:41:11;;;;;;;;;;;;;;;16.44;54.92;100742.47;5084760;28;1059;-57
2023/10/23 01:43:37;;;;;;;;;;;;;;;17.21;56.40;100736.13;5097825;28;1062;-57
2023/10/23 01:46:02;;;;;;;;;;;;;;;17.29;56.55;100735.53;5089988;28;885;-58
2023/10/23 01:48:28;;;;;;;;;;;;;;;16.91;56.55;100738.66;5090674;28;1158;-57
2023/10/23 01:50:54;;;;;;;;;;;;;;;16.72;55.93;100746.59;5066267;28;1167;-57
2023/10/23 01:53:19;;;;;;;;;;;;;;;16.64;55.48;100738.91;5083131;28;1019;-57
2023/10/23 01:55:45;;;;;;;;;;;;;;;16.55;55.08;100746.03;5090409;28;1913;-57
2023/10/23 01:58:10;;;;;;;;;;;;;;;16.48;54.98;100745.50;5074866;28;1288;-57
2023/10/23 02:00:36;;;;;;;;;;;;;;;16.41;54.88;100754.81;5077229;28;1066;-57
2023/10/23 02:03:01;;;;;;;;;;;;;;;17.56;56.15;100748.13;5058783;28;2244;-57
2023/10/23 02:05:27;;;;;;;;;;;;;;;17.12;56.68;100755.09;5078339;28;1368;-57
2023/10/23 02:07:52;;;;;;;;;;;;;;;16.87;56.40;100758.66;5066011;28;1062;-57
2023/10/23 02:10:18;;;;;;;;;;;;;;;16.71;55.73;100755.94;5067115;28;1086;-57
2023/10/23 02:12:43;;;;;;;;;;;;;;;16.59;55.67;100758.97;5066452;28;1083;-57
2023/10/23 02:15:10;;;;;;;;;;;;;;;16.57;55.16;100765.81;5072386;28;2039;-57
2023/10/23 02:17:36;;;;;;;;;;;;;;;16.73;56.29;100770.22;5089288;28;1067;-57
2023/10/23 02:20:05;;;;;;;;;;;;;;;17.74;55.93;100766.72;5090686;28;1073;-57
2023/10/23 02:22:30;;;;;;;;;;;;;;;17.06;56.55;100768.00;5058376;28;1282;-57
2023/10/23 02:24:56;;;;;;;;;;;;;;;16.87;56.17;100775.97;5071758;28;1155;-57
2023/10/23 02:27:21;;;;;;;;;;;;;;;16.71;55.88;100772.41;5089925;28;1069;-57
2023/10/23 02:29:47;;;;;;;;;;;;;;;16.67;55.42;100786.97;5058743;28;1074;-57
2023/10/23 02:32:12;;;;;;;;;;;;;;;16.55;55.40;100768.84;5075586;28;1086;-57
2023/10/23 02:34:38;;;;;;;;;;;;;;;17.08;56.49;100776.81;5059945;28;1910;-56
2023/10/23 02:37:06;;;;;;;;;;;;;;;17.27;56.63;100770.72;5089735;28;1170;-57
2023/10/23 02:39:32;;;;;;;;;;;;;;;16.88;56.43;100780.38;5089902;28;1209;-58
2023/10/23 02:41:58;;;;;;;;;;;;;;;16.77;55.98;100784.22;5071347;28;1214;-56
2023/10/23 02:44:23;;;;;;;;;;;;;;;16.61;55.94;100783.38;5076293;28;1200;-56
2023/10/23 02:46:49;;;;;;;;;;;;;;;16.54;55.37;100783.66;5094377;28;912;-56
2023/10/23 02:49:15;;;;;;;;;;;;;;;16.50;55.03;100785.28;5082954;28;1309;-58
2023/10/23 02:51:40;;;;;;;;;;;;;;;17.13;56.69;100786.97;5083147;28;1002;-58
2023/10/23 02:54:06;;;;;;;;;;;;;;;17.27;56.56;100781.72;5089757;28;1986;-58
2023/10/23 02:56:33;;;;;;;;;;;;;;;16.92;56.25;100783.41;5058190;28;1286;-58
2023/10/23 02:58:58;;;;;;;;;;;;;;;16.72;56.13;100782.28;5058307;28;1119;-58
2023/10/23 03:01:24;;;;;;;;;;;;;;;16.63;55.81;100769.38;5089339;28;1217;-56
2023/10/23 03:03:50;;;;;;;;;;;;;;;16.54;55.42;100777.34;5095809;28;2324;-57
2023/10/23 03:06:16;;;;;;;;;;;;;;;16.56;55.96;100786.13;5082639;28;1065;-57
2023/10/23 03:08:41;;;;;;;;;;;;;;;17.60;56.22;100773.94;5095967;28;1153;-56
2023/10/23 03:11:07;;;;;;;;;;;;;;;17.07;56.33;100775.16;5089687;28;859;-56
2023/10/23 03:13:33;;;;;;;;;;;;;;;16.84;56.05;100782.00;5082504;28;1118;-56
2023/10/23 03:15:59;;;;;;;;;;;;;;;16.70;55.83;100789.16;5077701;28;1902;-56
2023/10/23 03:18:24;;;;;;;;;;;;;;;16.65;55.38;100784.50;5083003;28;1153;-57
2023/10/23 03:20:50;;;;;;;;;;;;;;;16.50;55.33;100792.72;5083041;28;1180;-55
2023/10/23 03:23:15;;;;;;;;;;;;;;;16.42;55.15;100788.56;5077175;28;1186;-57
2023/10/23 03:25:44;;;;;;;;;;;;;;;16.62;55.79;100789.69;5095889;28;1014;-57
2023/10/23 03:28:09;;;;;;;;;;;;;;;17.58;56.21;100787.13;5095726;28;1095;-57
2023/10/23 03:30:35;;;;;;;;;;;;;;;17.03;56.65;100787.81;5082842;28;1148;-58
2023/10/23 03:33:00;;;;;;;;;;;;;;;16.84;56.20;100797.66;5081535;28;1855;-58
2023/10/23 03:35:26;;;;;;;;;;;;;;;16.70;55.74;100789.97;5088691;28;1988;-57
2023/10/23 03:37:51;;;;;;;;;;;;;;;16.57;55.39;100807.00;5082142;28;1227;-58
2023/10/23 03:40:19;;;;;;;;;;;;;;;17.15;56.75;100798.50;5095849;28;1048;-58
2023/10/23 03:42:45;;;;;;;;;;;;;;;17.36;56.51;100793.81;5075580;28;1074;-58
2023/10/23 03:45:10;;;;;;;;;;;;;;;16.98;56.56;100796.03;5092060;28;1098;-57
2023/10/23 03:47:36;;;;;;;;;;;;;;;16.77;56.11;100793.28;5081694;28;1006;-58
2023/10/23 03:50:02;;;;;;;;;;;;;;;16.63;55.88;100803.16;5086465;28;1038;-57
2023/10/23 03:52:28;;;;;;;;;;;;;;;16.57;55.39;100798.75;5080847;28;1051;-56
2023/10/23 03:54:53;;;;;;;;;;;;;;;16.48;55.48;100793.00;5099395;28;1971;-55
2023/10/23 03:57:19;;;;;;;;;;;;;;;16.41;55.27;100790.50;5098125;28;1086;-60
2023/10/23 03:59:44;;;;;;;;;;;;;;;16.67;56.40;100801.50;5079144;28;1093;-56
2023/10/23 04:02:10;;;;;;;;;;;;;;;17.65;56.35;100787.66;5086087;28;1181;-56
2023/10/23 04:04:35;;;;;;;;;;;;;;;17.03;56.75;100790.53;5086120;28;2630;-57
2023/10/23 04:07:01;;;;;;;;;;;;;;;16.82;56.43;100794.38;5099001;28;1122;-56
2023/10/23 04:09:29;;;;;;;;;;;;;;;16.69;55.93;100802.06;5086697;28;1217;-59
2023/10/23 04:11:55;;;;;;;;;;;;;;;16.59;55.38;100797.41;5073423;28;1039;-57
2023/10/23 04:14:20;;;;;;;;;;;;;;;16.49;55.38;100807.53;5093593;28;1902;-59
2023/10/23 04:16:46;;;;;;;;;;;;;;;16.39;55.38;100809.16;5093370;28;1092;-59
2023/10/23 04:19:11;;;;;;;;;;;;;;;17.53;56.38;100803.63;5080382;28;1097;-59
2023/10/23 04:21:39;;;;;;;;;;;;;;;17.07;56.91;100805.38;5082623;28;1116;-57
2023/10/23 04:24:09;;;;;;;;;;;;;;;16.78;56.57;100807.84;5085596;28;1114;-61
2023/10/23 04:26:34;;;;;;;;;;;;;;;16.64;56.25;100804.81;5098745;28;1081;-58
2023/10/23 04:29:00;;;;;;;;;;;;;;;16.59;55.81;100808.38;5064609;28;1098;-60
2023/10/23 04:31:25;;;;;;;;;;;;;;;16.50;55.46;100806.44;5087998;28;1042;-58
2023/10/23 04:33:51;;;;;;;;;;;;;;;16.39;55.60;100814.63;5092184;28;2431;-58
2023/10/23 04:36:17;;;;;;;;;;;;;;;17.17;54.60;100811.97;5098837;28;1909;-58
2023/10/23 04:38:42;;;;;;;;;;;;;;;16.55;53.48;100811.91;5096484;28;1129;-59
2023/10/23 04:41:08;;;;;;;;;;;;;;;16.35;52.01;100819.00;5078419;28;1050;-59
2023/10/23 04:43:35;;;;;;;;;;;;;;;16.28;50.89;100812.97;5080643;28;1134;-59
2023/10/23 04:46:00;;;;;;;;;;;;;;;16.91;53.03;100817.47;5091454;28;1083;-57
2023/10/23 04:48:26;;;;;;;;;;;;;;;16.52;52.23;100820.69;5091802;28;1087;-60
2023/10/23 04:50:51;;;;;;;;;;;;;;;16.35;50.51;100819.00;5086511;28;1381;-57
2023/10/23 04:53:17;;;;;;;;;;;;;;;17.02;52.53;100821.84;5093972;28;2240;-58
2023/10/23 04:55:43;;;;;;;;;;;;;;;16.61;51.45;100827.31;5091511;28;1906;-58
2023/10/23 04:58:08;;;;;;;;;;;;;;;16.42;50.35;100827.00;5082439;28;1147;-58
2023/10/23 05:00:34;;;;;;;;;;;;;;;16.60;50.46;100826.47;5085580;28;1122;-57
2023/10/23 05:03:00;;;;;;;;;;;;;;;17.24;52.26;100832.56;5098964;28;1046;-57
2023/10/23 05:05:25;;;;;;;;;;;;;;;16.73;51.31;100835.28;5091924;28;1094;-57
2023/10/23 05:07:50;;;;;;;;;;;;;;;16.64;50.11;100843.22;5091707;28;1179;-57
2023/10/23 05:10:16;;;;;;;;;;;;;;;16.52;49.25;100845.41;5092247;28;1154;-55
2023/10/23 05:12:42;;;;;;;;;;;;;;;17.07;50.35;100845.78;5083955;28;1015;-57
2023/10/23 05:15:08;;;;;;;;;;;;;;;16.77;51.20;100850.94;5091702;28;1902;-58
2023/10/23 05:17:33;;;;;;;;;;;;;;;16.73;49.66;100843.50;5085016;28;1034;-58
2023/10/23 05:19:59;;;;;;;;;;;;;;;17.61;51.12;100855.31;5098373;28;1117;-59
2023/10/23 05:22:24;;;;;;;;;;;;;;;16.91;50.98;100865.00;5091067;28;1065;-56
2023/10/23 05:24:50;;;;;;;;;;;;;;;16.74;49.84;100858.91;5091598;28;1106;-57
2023/10/23 05:27:16;;;;;;;;;;;;;;;17.69;51.18;100854.75;5084811;28;1026;-58
2023/10/23 05:29:41;;;;;;;;;;;;;;;17.02;50.83;100854.00;5083656;28;1447;-55
2023/10/23 05:32:07;;;;;;;;;;;;;;;16.96;49.66;100853.19;5089069;28;2250;-55
2023/10/23 05:34:33;;;;;;;;;;;;;;;16.76;48.70;100856.72;5084163;28;2077;-59
2023/10/23 05:36:58;;;;;;;;;;;;;;;17.49;50.46;100857.53;5082872;28;2138;-56
2023/10/23 05:39:24;;;;;;;;;;;;;;;17.22;50.67;100853.16;5088559;28;2041;-58
2023/10/23 05:41:49;;;;;;;;;;;;;;;17.01;49.41;100861.44;5088819;28;1971;-57
2023/10/23 05:44:15;;;;;;;;;;;;;;;16.87;48.77;100865.78;5088938;28;2117;-61
2023/10/23 05:46:40;;;;;;;;;;;;;;;16.88;47.98;100875.66;5090321;28;2221;-55
2023/10/23 05:49:05;;;;;;;;;;;;;;;17.45;49.90;100880.09;5095227;28;1038;-58
2023/10/23 05:51:31;;;;;;;;;;;;;;;16.98;49.47;100870.19;5077119;28;1003;-57
2023/10/23 05:53:57;;;;;;;;;;;;;;;16.88;48.76;100875.66;5082324;28;1139;-57
2023/10/23 05:56:22;;;;;;;;;;;;;;;16.86;47.92;100877.88;5081578;28;1988;-57
2023/10/23 05:58:50;;;;;;;;;;;;;;;16.82;47.23;100887.75;5095143;28;992;-57
2023/10/23 06:01:15;;;;;;;;;;;;;;;17.64;49.47;100890.50;5084662;28;1041;-59
2023/10/23 06:03:41;;;;;;;;;;;;;;;17.02;49.35;100884.22;5096122;28;1094;-59
2023/10/23 06:06:07;;;;;;;;;;;;;;;16.95;48.35;100887.25;5084747;28;1015;-58
2023/10/23 06:08:33;;;;;;;;;;;;;;;16.86;47.57;100888.88;5089142;28;1035;-57
2023/10/23 06:10:59;;;;;;;;;;;;;;;16.80;47.13;100893.50;5088821;28;1134;-57
2023/10/23 06:13:24;;;;;;;;;;;;;;;17.40;48.84;100899.34;5094833;28;1026;-57
2023/10/23 06:15:50;;;;;;;;;;;;;;;17.06;48.50;100899.06;5092224;28;1917;-57
2023/10/23 06:18:16;;;;;;;;;;;;;;;16.90;47.96;100898.22;5079538;28;1050;-57
2023/10/23 06:20:41;;;;;;;;;;;;;;;17.79;48.85;100900.66;5096792;28;967;-56
2023/10/23 06:23:07;;;;;;;;;;;;;;;17.28;49.22;100896.88;5095071;28;1300;-58
2023/10/23 06:25:32;;;;;;;;;;;;;;;17.14;48.30;100893.03;5078030;28;1065;-58
2023/10/23 06:27:58;;;;;;;;;;;;;;;17.05;47.43;100894.66;5088862;28;992;-58
2023/10/23 06:30:23;;;;;;;;;;;;;;;16.86;47.15;100884.19;5090775;28;1042;-58
2023/10/23 06:32:49;;;;;;;;;;;;;;;16.83;47.15;100892.13;5076790;28;1075;-59
2023/10/23 06:35:15;;;;;;;;;;;;;;;16.73;46.76;100896.53;5092820;28;1976;-58
2023/10/23 06:37:41;;;;;;;;;;;;;;;16.76;46.42;100893.22;5096602;28;1014;-60
2023/10/23 06:40:06;;;;;;;;;;;;;;;16.81;46.15;100897.09;5096273;28;1205;-60
2023/10/23 06:42:32;;;;;;;;;;;;;;;16.69;46.21;100906.41;5096371;28;1006;-59
2023/10/23 06:44:58;;;;;;;;;;;;;;;17.52;47.97;100893.56;5077507;28;1061;-58
2023/10/23 06:47:24;;;;;;;;;;;;;;;17.07;48.25;100898.78;5075862;28;2081;-57
2023/10/23 06:49:50;;;;;;;;;;;;;;;16.92;47.51;100896.84;5081944;28;1138;-58
2023/10/23 06:52:15;;;;;;;;;;;;;;;16.82;47.25;100907.78;5096566;28;1131;-57
2023/10/23 06:54:41;;;;;;;;;;;;;;;17.58;48.64;100900.69;5080494;28;1909;-55
2023/10/23 06:57:06;;;;;;;;;;;;;;;17.19;48.38;100892.19;5093990;28;1198;-55
2023/10/23 06:59:33;;;;;;;;;;;;;;;17.04;47.54;100902.09;5096168;28;1019;-56
2023/10/23 07:01:59;;;;;;;;;;;;;;;16.93;47.25;100904.00;5077770;28;1011;-57
2023/10/23 07:04:24;;;;;;;;;;;;;;;16.95;46.79;100900.16;5076075;28;1086;-55
2023/10/23 07:06:50;;;;;;;;;;;;;;;17.39;47.74;100918.84;5091285;28;1276;-57
2023/10/23 07:09:17;;;;;;;;;;;;;;;17.31;48.46;100916.69;5089091;28;1011;-56
2023/10/23 07:11:43;;;;;;;;;;;;;;;17.06;48.12;100908.13;5082359;28;1051;-55
2023/10/23 07:14:09;;;;;;;;;;;;;;;16.97;47.66;100907.03;5096374;28;1909;-52
2023/10/23 07:16:34;;;;;;;;;;;;;;;16.87;47.16;100906.97;5089677;28;2384;-54
2023/10/23 07:19:02;;;;;;;;;;;;;;;16.78;46.82;100909.44;5089059;28;1043;-55
2023/10/23 07:21:27;;;;;;;;;;;;;;;16.76;46.67;100906.97;5089741;28;1014;-57
2023/10/23 07:23:53;;;;;;;;;;;;;;;17.59;47.83;100901.53;5088390;28;1070;-58
2023/10/23 07:26:19;;;;;;;;;;;;;;;17.13;48.05;100904.31;5089531;28;1035;-59
2023/10/23 07:28:45;;;;;;;;;;;;;;;16.98;47.55;100908.66;5089089;28;1035;-58
2023/10/23 07:31:10;;;;;;;;;;;;;;;16.94;47.26;100904.81;5075967;28;1169;-59
2023/10/23 07:33:36;;;;;;;;;;;;;;;17.78;48.11;100913.59;5083331;28;1038;-56
2023/10/23 07:36:09;;;;;;;;;;;;;;;17.30;48.47;100910.34;5075998;28;1918;-57
2023/10/23 07:38:35;;;;;;;;;;;;;;;17.12;47.83;100902.66;5084549;28;1020;-58
2023/10/23 07:41:00;;;;;;;;;;;;;;;17.06;47.24;100905.38;5096232;28;1146;-57
2023/10/23 07:43:26;;;;;;;;;;;;;;;16.98;47.08;100892.19;5095958;28;1102;-55
2023/10/23 07:45:52;;;;;;;;;;;;;;;16.93;46.56;100901.25;5089118;28;1895;-55
2023/10/23 07:48:18;;;;;;;;;;;;;;;17.58;48.09;100900.69;5075617;28;906;-53
2023/10/23 07:50:43;;;;;;;;;;;;;;;17.29;48.21;100905.94;5090906;28;1008;-55
2023/10/23 07:53:09;;;;;;;;;;;;;;;17.13;47.67;100898.81;5086667;28;1133;-56
2023/10/23 07:55:35;;;;;;;;;;;;;;;17.03;47.36;100899.63;5082961;28;1906;-51
2023/10/23 07:58:01;;;;;;;;;;;;;;;16.98;47.07;100896.88;5095973;28;1162;-58
2023/10/23 08:00:28;;;;;;;;;;;;;;;16.96;46.64;100893.53;5083675;28;1018;-57
2023/10/23 08:02:54;;;;;;;;;;;;;;;16.82;46.71;100890.50;5079662;28;1122;-55
2023/10/23 08:05:19;;;;;;;;;;;;;;;17.79;47.81;100900.66;5078062;28;1137;-56
2023/10/23 08:07:45;;;;;;;;;;;;;;;17.37;48.47;100888.88;5086226;28;1287;-55
2023/10/23 08:10:10;;;;;;;;;;;;;;;17.09;48.31;100887.53;5086825;28;1122;-55
2023/10/23 08:12:36;;;;;;;;;;;;;;;17.04;47.66;100890.25;5085595;28;1193;-56
2023/10/23 08:15:02;;;;;;;;;;;;;;;16.99;47.14;100879.28;5088534;28;1933;-56
2023/10/23 08:17:27;;;;;;;;;;;;;;;16.96;47.09;100888.91;5094994;28;1220;-55
2023/10/23 08:19:53;;;;;;;;;;;;;;;16.95;46.73;100889.19;5095893;28;1492;-56
2023/10/23 08:22:19;;;;;;;;;;;;;;;16.88;46.79;100893.00;5095423;28;1449;-55
2023/10/23 08:24:44;;;;;;;;;;;;;;;16.82;46.59;100885.81;5091134;28;1381;-54
2023/10/23 08:27:10;;;;;;;;;;;;;;;16.89;46.37;100893.84;5092668;28;1228;-54
2023/10/23 08:29:35;;;;;;;;;;;;;;;16.81;46.49;100888.84;5082757;28;1031;-56
2023/10/23 08:32:01;;;;;;;;;;;;;;;16.75;46.47;100888.81;5089243;28;1181;-54
2023/10/23 08:34:27;;;;;;;;;;;;;;;16.93;45.92;100889.44;5097803;28;1978;-54
2023/10/23 08:36:52;;;;;;;;;;;;;;;16.75;46.35;100883.34;5078871;28;1383;-58
2023/10/23 08:39:19;;;;;;;;;;;;;;;16.72;46.02;100878.41;5090906;28;1079;-58
2023/10/23 08:41:45;;;;;;;;;;;;;;;16.77;45.93;100886.66;5079935;28;1059;-58
2023/10/23 08:44:11;;;;;;;;;;;;;;;16.72;46.09;100889.38;5098604;28;1149;-59
2023/10/23 08:46:37;;;;;;;;;;;;;;;16.76;46.14;100887.75;5091909;28;1066;-58
2023/10/23 08:49:02;;;;;;;;;;;;;;;17.73;47.59;100885.28;5087851;28;1161;-58
2023/10/23 08:51:28;;;;;;;;;;;;;;;17.33;48.33;100876.78;5094586;28;1131;-58
2023/10/23 08:54:20;;;;;;;;;;;;;;;17.11;48.03;100890.84;5096157;28;1125;-58
2023/10/23 08:56:49;;;;;;;;;;;;;;;17.05;47.51;100887.25;5083166;28;1334;-58
2023/10/23 08:59:14;;;;;;;;;;;;;;;17.00;47.28;100883.66;5080195;28;1210;-58
2023/10/23 09:01:40;;;;;;;;;;;;;;;17.03;47.10;100878.47;5089749;28;1165;-58
2023/10/23 09:04:06;;;;;;;;;;;;;;;16.98;46.72;100874.88;5091828;28;1169;-55
2023/10/23 09:06:32;;;;;;;;;;;;;;;16.92;46.49;100876.81;5092836;28;1063;-56
2023/10/23 09:08:57;;;;;;;;;;;;;;;17.74;47.21;100874.00;5093823;28;1363;-56
2023/10/23 09:11:36;;;;;;;;;;;;;;;17.22;48.22;100870.50;5080256;28;1102;-56
2023/10/23 09:14:01;;;;;;;;;;;;;;;17.09;47.75;100877.34;5084630;28;1169;-56
2023/10/23 09:16:27;;;;;;;;;;;;;;;17.16;47.02;100866.09;5096707;28;1980;-56
2023/10/23 09:18:55;;;;;;;;;;;;;;;17.82;47.90;100869.00;5064089;28;1034;-56
2023/10/23 09:21:20;;;;;;;;;;;;;;;17.33;48.29;100875.97;5084545;28;1117;-56
2023/10/23 09:23:56;;;;;;;;;;;;;;;17.29;47.54;100864.69;5091817;28;1233;-57
2023/10/23 09:26:21;;;;;;;;;;;;;;;17.18;47.38;100863.06;5093387;28;1094;-57
2023/10/23 09:28:49;;;;;;;;;;;;;;;17.12;47.19;100858.69;5097015;28;1390;-57
2023/10/23 09:31:15;;;;;;;;;;;;;;;17.08;47.05;100864.72;5097236;28;1056;-57
2023/10/23 09:33:40;;;;;;;;;;;;;;;17.09;46.64;100865.53;5097806;28;1069;-57
2023/10/23 09:36:08;;;;;;;;;;;;;;;17.07;46.55;100856.78;5084908;28;1906;-57
2023/10/23 09:38:34;;;;;;;;;;;;;;;17.05;46.54;100859.75;5087493;28;1159;-57
2023/10/23 09:41:00;;;;;;;;;;;;;;;17.08;46.03;100848.25;5095698;28;1007;-56
2023/10/23 09:43:25;;;;;;;;;;;;;;;16.99;46.41;100855.38;5068241;28;1163;-54
2023/10/23 09:45:51;;;;;;;;;;;;;;;16.97;46.17;100852.09;5095729;28;1054;-56
2023/10/23 09:48:17;;;;;;;;;;;;;;;16.90;46.25;100852.38;5077618;28;1216;-55
2023/10/23 09:50:42;;;;;;;;;;;;;;;17.47;46.95;100843.25;5079212;28;1150;-57
2023/10/23 09:53:09;;;;;;;;;;;;;;;17.56;47.95;100831.41;5088491;28;1343;-56
2023/10/23 09:55:34;;;;;;;;;;;;;;;17.26;47.86;100832.28;5071845;28;1901;-49
2023/10/23 09:58:00;;;;;;;;;;;;;;;17.16;47.49;100837.78;5087858;28;1229;-52
2023/10/23 10:00:26;;;;;;;;;;;;;;;17.19;47.15;100838.06;5072939;28;1094;-50
2023/10/23 10:02:54;;;;;;;;;;;;;;;17.10;47.08;100823.25;5097683;28;1346;-49
2023/10/23 10:05:33;;;;;;;;;;;;;;;17.15;46.55;100828.72;5097322;28;1022;-47
2023/10/23 10:08:02;;;;;;;;;;;;;;;17.09;46.50;100822.41;5096975;28;1121;-50
2023/10/23 10:10:28;;;;;;;;;;;;;;;17.04;46.50;100819.69;5091770;28;1141;-52
2023/10/23 10:12:56;;;;;;;;;;;;;;;17.00;46.37;100815.00;5072737;28;1059;-55
2023/10/23 10:15:22;;;;;;;;;;;;;;;17.03;46.07;100809.78;5084688;28;1976;-51
2023/10/23 10:17:49;;;;;;;;;;;;;;;17.61;46.92;100800.31;5092298;28;1301;-51
2023/10/23 10:20:14;;;;;;;;;;;;;;;17.60;48.09;100807.75;5095575;28;1351;-52
2023/10/23 10:22:41;;;;;;;;;;;;;;;17.35;47.73;100807.81;5072953;28;1130;-53
2023/10/23 10:25:07;;;;;;;;;;;;;;;17.18;47.59;100802.59;5083063;28;1136;-51
2023/10/23 10:27:32;;;;;;;;;;;;;;;17.18;47.02;100797.13;5074301;28;1332;-52
2023/10/23 10:30:07;;;;;;;;;;;;;;;17.06;47.07;100798.22;5088012;28;1070;-55
2023/10/23 10:32:35;;;;;;;;;;;;;;;17.13;46.50;100791.66;5084451;28;1170;-53
2023/10/23 10:35:03;;;;;;;;;;;;;;;17.09;46.50;100788.63;5096659;28;1968;-55
2023/10/23 10:37:31;;;;;;;;;;;;;;;17.02;46.61;100788.91;5096028;28;1129;-55
2023/10/23 10:39:58;;;;;;;;;;;;;;;17.02;46.35;100794.38;5096357;28;1102;-55
2023/10/23 10:42:26;;;;;;;;;;;;;;;17.05;46.20;100791.09;5096213;28;1026;-58
2023/10/23 10:44:52;;;;;;;;;;;;;;;17.05;45.94;100793.00;5095908;28;1396;-52
2023/10/23 10:47:18;;;;;;;;;;;;;;;16.98;46.16;100781.50;5086684;28;1163;-53
2023/10/23 10:49:47;;;;;;;;;;;;;;;17.01;46.12;100790.00;5080993;28;1110;-53
2023/10/23 10:52:30;;;;;;;;;;;;;;;16.94;46.00;100781.22;5075782;28;1197;-51
2023/10/23 10:55:05;;;;;;;;;;;;;;;17.04;45.66;100777.63;5089398;28;1898;-54
2023/10/23 10:57:30;;;;;;;;;;;;;;;17.69;47.57;100779.69;5084327;28;1186;-54
2023/10/23 10:59:57;;;;;;;;;;;;;;;17.33;47.77;100777.84;5082982;28;1229;-52
2023/10/23 11:02:23;;;;;;;;;;;;;;;17.23;47.34;100780.63;5087759;28;894;-49
2023/10/23 11:04:48;;;;;;;;;;;;;;;17.09;46.92;100781.19;5082928;28;1070;-50
2023/10/23 11:07:15;;;;;;;;;;;;;;;17.12;46.91;100771.56;5088265;28;1077;-50
2023/10/23 11:09:41;;;;;;;;;;;;;;;17.06;46.72;100772.69;5080882;28;1083;-50
2023/10/23 11:12:07;;;;;;;;;;;;;;;17.09;46.56;100766.63;5088963;28;1109;-51
2023/10/23 11:14:32;;;;;;;;;;;;;;;17.03;46.16;100768.56;5090423;28;1976;-51
2023/10/23 11:16:58;;;;;;;;;;;;;;;16.97;46.27;100758.69;5095729;28;1061;-50
2023/10/23 11:19:23;;;;;;;;;;;;;;;16.97;46.24;100758.69;5096080;28;1113;-51
2023/10/23 11:21:49;;;;;;;;;;;;;;;17.90;47.18;100763.91;5091393;28;1327;-49
2023/10/23 11:24:14;;;;;;;;;;;;;;;17.59;48.37;100762.09;5096385;28;1077;-51
2023/10/23 11:26:40;;;;;;;;;;;;;;;17.41;47.88;100763.53;5081441;28;912;-51
2023/10/23 11:29:05;;;;;;;;;;;;;;;17.31;47.51;100766.31;5086766;28;1165;-51
2023/10/23 11:31:31;;;;;;;;;;;;;;;17.21;47.23;100767.16;5089273;28;1197;-51
2023/10/23 11:33:57;;;;;;;;;;;;;;;17.24;46.57;100769.34;5089688;28;1043;-51
2023/10/23 11:36:22;;;;;;;;;;;;;;;17.31;47.10;100765.50;5075881;28;2008;-53
2023/10/23 11:38:48;;;;;;;;;;;;;;;17.32;47.12;100759.72;5092876;28;960;-50
2023/10/23 11:41:14;;;;;;;;;;;;;;;17.21;46.81;100758.94;5096338;28;1126;-48
2023/10/23 11:43:39;;;;;;;;;;;;;;;17.09;46.82;100758.41;5082632;28;1054;-51
2023/10/23 11:46:05;;;;;;;;;;;;;;;17.12;46.55;100755.09;5088522;28;1126;-52
2023/10/23 11:48:30;;;;;;;;;;;;;;;17.12;46.40;100746.03;5089273;28;1107;-54
2023/10/23 11:50:56;;;;;;;;;;;;;;;17.09;46.33;100742.72;5075577;28;903;-54
2023/10/23 11:53:22;;;;;;;;;;;;;;;17.04;46.84;100742.75;5089105;28;1218;-54
2023/10/23 11:55:48;;;;;;;;;;;;;;;17.94;48.41;100754.00;5083120;28;1975;-52
2023/10/23 11:58:13;;;;;;;;;;;;;;;17.62;49.04;100746.97;5063784;28;1259;-53
2023/10/23 12:00:39;;;;;;;;;;;;;;;17.54;49.06;100750.31;5082643;28;1067;-53
2023/10/23 12:03:05;;;;;;;;;;;;;;;17.56;48.70;100748.13;5072436;28;1125;-53
2023/10/23 12:05:30;;;;;;;;;;;;;;;17.55;48.00;100743.72;5088280;28;1046;-53
2023/10/23 12:07:56;;;;;;;;;;;;;;;17.41;48.00;100748.97;5097443;28;1058;-53
2023/10/23 12:10:22;;;;;;;;;;;;;;;17.34;47.35;100751.22;5088667;28;1019;-53
2023/10/23 12:12:48;;;;;;;;;;;;;;;17.41;46.99;100738.78;5085958;28;1129;-54
2023/10/23 12:15:14;;;;;;;;;;;;;;;17.45;46.85;100753.63;5090207;28;1918;-52
2023/10/23 12:17:39;;;;;;;;;;;;;;;17.35;46.64;100748.19;5083483;28;1101;-53
2023/10/23 12:20:08;;;;;;;;;;;;;;;17.25;46.97;100750.94;5088608;28;1043;-53
2023/10/23 12:22:35;;;;;;;;;;;;;;;17.32;46.53;100748.75;5083020;28;1066;-53
2023/10/23 12:25:02;;;;;;;;;;;;;;;17.23;46.42;100742.16;5089216;28;1028;-52
2023/10/23 12:27:28;;;;;;;;;;;;;;;17.19;46.19;100750.13;5096174;28;859;-53
2023/10/23 12:29:57;;;;;;;;;;;;;;;17.23;46.15;100761.38;5099625;28;1027;-49
2023/10/23 12:32:23;;;;;;;;;;;;;;;17.14;46.16;100760.31;5094529;28;1129;-52
2023/10/23 12:34:48;;;;;;;;;;;;;;;17.10;46.37;100763.59;5098675;28;1930;-51
2023/10/23 12:37:14;;;;;;;;;;;;;;;17.05;46.07;100760.84;5085757;28;1099;-51
2023/10/23 12:39:40;;;;;;;;;;;;;;;17.14;45.84;100758.41;5079420;28;1083;-53
2023/10/23 12:42:05;;;;;;;;;;;;;;;17.19;45.84;100754.81;5092122;28;1091;-53